createdAt,value
2016-09-14T00:00:34.142Z,-49
2016-09-14T00:01:34.171Z,-50
2016-09-14T00:02:34.140Z,-49
2016-09-14T00:03:34.255Z,-51
2016-09-14T00:04:34.111Z,-51
2016-09-14T00:05:34.104Z,-51
2016-09-14T00:06:34.113Z,-51
2016-09-14T00:07:34.136Z,-52
2016-09-14T00:08:34.111Z,-51
2016-09-14T00:09:34.108Z,-48
2016-09-14T00:10:34.169Z,-48
2016-09-14T00:11:34.121Z,-49
2016-09-14T00:12:34.126Z,-49
2016-09-14T00:13:34.146Z,-49
2016-09-14T00:14:34.123Z,-49
2016-09-14T00:15:34.127Z,-50
2016-09-14T00:16:34.150Z,-49
2016-09-14T00:17:34.114Z,-49
2016-09-14T00:18:34.110Z,-49
2016-09-14T00:19:34.118Z,-50
2016-09-14T00:20:34.181Z,-49
2016-09-14T00:21:34.154Z,-50
2016-09-14T00:22:34.140Z,-49
2016-09-14T00:23:34.179Z,-50
2016-09-14T00:24:34.131Z,-50
2016-09-14T00:25:34.152Z,-50
2016-09-14T00:26:34.123Z,-49
2016-09-14T00:27:34.131Z,-49
2016-09-14T00:28:34.123Z,-47
2016-09-14T00:29:36.540Z,-49
2016-09-14T00:30:35.349Z,-52
2016-09-14T00:31:34.159Z,-48
2016-09-14T00:32:34.136Z,-49
2016-09-14T00:33:34.924Z,-48
2016-09-14T00:34:34.776Z,-49
2016-09-14T00:35:34.189Z,-48
2016-09-14T00:36:34.178Z,-48
2016-09-14T00:37:35.105Z,-48
2016-09-14T00:38:35.268Z,-47
2016-09-14T00:39:34.178Z,-49
2016-09-14T00:40:34.139Z,-50
2016-09-14T00:41:35.244Z,-49
2016-09-14T00:42:34.150Z,-49
2016-09-14T00:43:34.256Z,-50
2016-09-14T00:44:34.623Z,-48
2016-09-14T00:45:34.146Z,-50
2016-09-14T00:46:34.162Z,-50
2016-09-14T00:47:34.165Z,-50
2016-09-14T00:48:34.161Z,-50
2016-09-14T00:49:34.146Z,-50
2016-09-14T00:50:34.147Z,-50
2016-09-14T00:51:34.709Z,-48
2016-09-14T00:52:34.175Z,-47
2016-09-14T00:53:34.583Z,-49
2016-09-14T00:54:34.193Z,-49
2016-09-14T00:55:34.509Z,-47
2016-09-14T00:56:34.167Z,-49
2016-09-14T00:57:34.174Z,-49
2016-09-14T00:58:34.248Z,-48
2016-09-14T00:59:34.172Z,-51
2016-09-14T01:00:34.176Z,-52
2016-09-14T01:01:34.171Z,-50
2016-09-14T01:02:34.405Z,-50
2016-09-14T01:03:34.579Z,-49
2016-09-14T01:04:34.212Z,-48
2016-09-14T01:05:34.166Z,-48
2016-09-14T01:06:34.485Z,-51
2016-09-14T01:07:34.188Z,-51
2016-09-14T01:08:34.562Z,-51
2016-09-14T01:09:34.156Z,-51
2016-09-14T01:10:34.170Z,-50
2016-09-14T01:11:34.162Z,-49
2016-09-14T01:12:34.166Z,-49
2016-09-14T01:13:34.169Z,-51
2016-09-14T01:14:34.217Z,-52
2016-09-14T01:15:34.459Z,-52
2016-09-14T01:16:34.167Z,-49
2016-09-14T01:17:34.385Z,-49
2016-09-14T01:18:34.488Z,-50
2016-09-14T01:19:34.216Z,-51
2016-09-14T01:20:34.187Z,-50
2016-09-14T01:21:34.190Z,-50
2016-09-14T01:22:34.155Z,-50
2016-09-14T01:23:34.182Z,-50
2016-09-14T01:24:34.139Z,-49
2016-09-14T01:25:34.182Z,-49
2016-09-14T01:26:34.220Z,-49
2016-09-14T01:27:34.174Z,-50
2016-09-14T01:28:34.166Z,-49
2016-09-14T01:29:34.195Z,-50
2016-09-14T01:30:34.181Z,-50
2016-09-14T01:31:34.222Z,-50
2016-09-14T01:32:34.190Z,-50
2016-09-14T01:33:34.203Z,-50
2016-09-14T01:34:34.202Z,-50
2016-09-14T01:35:34.214Z,-50
2016-09-14T01:36:34.891Z,-51
2016-09-14T01:37:34.252Z,-52
2016-09-14T01:38:34.257Z,-49
2016-09-14T01:39:34.286Z,-51
2016-09-14T01:40:34.188Z,-50
2016-09-14T01:41:34.251Z,-51
2016-09-14T01:42:35.120Z,-51
2016-09-14T01:43:35.154Z,-50
2016-09-14T01:44:34.957Z,-50
2016-09-14T01:45:35.036Z,-51
2016-09-14T01:46:35.160Z,-50
2016-09-14T01:47:34.845Z,-48
2016-09-14T01:48:34.954Z,-51
2016-09-14T01:49:34.256Z,-48
2016-09-14T01:50:35.184Z,-49
2016-09-14T01:51:34.232Z,-50
2016-09-14T01:52:34.207Z,-51
2016-09-14T01:53:34.222Z,-50
2016-09-14T01:54:34.271Z,-52
2016-09-14T01:55:34.588Z,-50
2016-09-14T01:56:34.258Z,-50
2016-09-14T01:57:34.388Z,-51
2016-09-14T01:58:34.250Z,-49
2016-09-14T01:59:34.222Z,-49
2016-09-14T02:00:34.220Z,-49
2016-09-14T02:01:34.218Z,-48
2016-09-14T02:02:34.700Z,-49
2016-09-14T02:03:34.216Z,-49
2016-09-14T02:04:35.247Z,-47
2016-09-14T02:05:34.260Z,-51
2016-09-14T02:06:34.328Z,-51
2016-09-14T02:07:34.230Z,-51
2016-09-14T02:08:34.198Z,-50
2016-09-14T02:09:34.228Z,-51
2016-09-14T02:10:34.281Z,-51
2016-09-14T02:11:34.907Z,-51
2016-09-14T02:12:34.237Z,-50
2016-09-14T02:13:34.218Z,-50
2016-09-14T02:14:35.054Z,-50
2016-09-14T02:15:35.014Z,-49
2016-09-14T02:16:34.712Z,-50
2016-09-14T02:17:34.251Z,-51
2016-09-14T02:18:34.322Z,-49
2016-09-14T02:19:34.222Z,-49
2016-09-14T02:20:34.254Z,-49
2016-09-14T02:21:34.231Z,-49
2016-09-14T02:22:35.760Z,-49
2016-09-14T02:23:34.550Z,-48
2016-09-14T02:24:34.273Z,-48
2016-09-14T02:25:34.516Z,-48
2016-09-14T02:26:34.353Z,-49
2016-09-14T02:27:34.324Z,-49
2016-09-14T02:28:34.249Z,-50
2016-09-14T02:29:34.279Z,-49
2016-09-14T02:30:34.292Z,-49
2016-09-14T02:31:34.245Z,-48
2016-09-14T02:32:34.282Z,-48
2016-09-14T02:33:34.265Z,-48
2016-09-14T02:34:34.358Z,-48
2016-09-14T02:35:34.262Z,-48
2016-09-14T02:36:34.261Z,-48
2016-09-14T02:37:34.351Z,-45
2016-09-14T02:38:34.253Z,-47
2016-09-14T02:39:34.263Z,-48
2016-09-14T02:40:34.309Z,-48
2016-09-14T02:41:34.257Z,-47
2016-09-14T02:42:34.338Z,-47
2016-09-14T02:43:34.266Z,-47
2016-09-14T02:44:34.273Z,-47
2016-09-14T02:45:34.345Z,-48
2016-09-14T02:46:34.301Z,-49
2016-09-14T02:47:34.273Z,-49
2016-09-14T02:48:34.262Z,-49
2016-09-14T02:49:34.312Z,-49
2016-09-14T02:50:34.593Z,-48
2016-09-14T02:51:34.283Z,-47
2016-09-14T02:52:34.291Z,-47
2016-09-14T02:53:34.285Z,-47
2016-09-14T02:54:34.305Z,-49
2016-09-14T02:55:34.266Z,-49
2016-09-14T02:56:34.277Z,-47
2016-09-14T02:57:34.306Z,-48
2016-09-14T02:58:34.793Z,-49
2016-09-14T02:59:34.267Z,-49
2016-09-14T03:00:34.274Z,-48
2016-09-14T03:01:34.263Z,-49
2016-09-14T03:02:34.257Z,-48
2016-09-14T03:03:34.260Z,-49
2016-09-14T03:04:34.925Z,-48
2016-09-14T03:05:34.267Z,-48
2016-09-14T03:06:35.054Z,-48
2016-09-14T03:07:35.217Z,-47
2016-09-14T03:08:34.287Z,-48
2016-09-14T03:09:34.473Z,-49
2016-09-14T03:10:34.350Z,-48
2016-09-14T03:11:34.282Z,-50
2016-09-14T03:12:34.296Z,-49
2016-09-14T03:13:34.301Z,-48
2016-09-14T03:14:34.287Z,-46
2016-09-14T03:15:34.276Z,-48
2016-09-14T03:16:34.288Z,-48
2016-09-14T03:17:35.063Z,-49
2016-09-14T03:18:35.816Z,-49
2016-09-14T03:19:34.286Z,-51
2016-09-14T03:20:34.263Z,-51
2016-09-14T03:21:34.324Z,-51
2016-09-14T03:22:34.280Z,-51
2016-09-14T03:23:34.273Z,-50
2016-09-14T03:24:34.335Z,-50
2016-09-14T03:25:34.283Z,-49
2016-09-14T03:26:34.288Z,-49
2016-09-14T03:27:34.377Z,-49
2016-09-14T03:28:34.713Z,-52
2016-09-14T03:29:34.325Z,-47
2016-09-14T03:30:34.313Z,-50
2016-09-14T03:31:35.680Z,-49
2016-09-14T03:32:35.682Z,-49
2016-09-14T03:33:35.598Z,-50
2016-09-14T03:34:34.636Z,-50
2016-09-14T03:35:34.487Z,-49
2016-09-14T03:36:34.345Z,-49
2016-09-14T03:37:34.321Z,-49
2016-09-14T03:38:35.925Z,-49
2016-09-14T03:39:34.513Z,-50
2016-09-14T03:40:34.312Z,-49
2016-09-14T03:41:35.975Z,-50
2016-09-14T03:42:34.572Z,-49
2016-09-14T03:43:34.614Z,-51
2016-09-14T03:44:35.205Z,-48
2016-09-14T03:45:36.254Z,-49
2016-09-14T03:46:34.858Z,-51
2016-09-14T03:47:34.330Z,-52
2016-09-14T03:48:35.297Z,-51
2016-09-14T03:49:34.337Z,-52
2016-09-14T03:50:35.280Z,-50
2016-09-14T03:51:35.141Z,-50
2016-09-14T03:52:34.333Z,-45
2016-09-14T03:53:34.547Z,-50
2016-09-14T03:54:34.346Z,-49
2016-09-14T03:55:35.202Z,-47
2016-09-14T03:56:34.322Z,-49
2016-09-14T03:57:34.360Z,-47
2016-09-14T03:58:34.314Z,-49
2016-09-14T03:59:34.362Z,-49
2016-09-14T04:00:34.345Z,-46
2016-09-14T04:01:34.817Z,-50
2016-09-14T04:02:34.309Z,-47
2016-09-14T04:03:34.326Z,-51
2016-09-14T04:04:34.343Z,-48
2016-09-14T04:05:34.308Z,-49
2016-09-14T04:06:34.403Z,-50
2016-09-14T04:07:35.230Z,-49
2016-09-14T04:08:34.320Z,-49
2016-09-14T04:09:34.301Z,-49
2016-09-14T04:10:34.313Z,-49
2016-09-14T04:11:34.316Z,-49
2016-09-14T04:13:34.332Z,-49
2016-09-14T04:14:34.349Z,-49
2016-09-14T04:15:34.321Z,-49
2016-09-14T04:16:34.395Z,-49
2016-09-14T04:17:34.358Z,-49
2016-09-14T04:18:34.349Z,-47
2016-09-14T04:19:34.358Z,-50
2016-09-14T04:20:34.365Z,-47
2016-09-14T04:21:34.387Z,-49
2016-09-14T04:22:34.423Z,-49
2016-09-14T04:23:34.434Z,-47
2016-09-14T04:24:34.378Z,-49
2016-09-14T04:25:34.353Z,-48
2016-09-14T04:26:34.347Z,-49
2016-09-14T04:27:34.343Z,-49
2016-09-14T04:28:34.358Z,-48
2016-09-14T04:29:34.368Z,-48
2016-09-14T04:30:34.355Z,-48
2016-09-14T04:31:34.356Z,-49
2016-09-14T04:32:34.368Z,-50
2016-09-14T04:33:34.352Z,-50
2016-09-14T04:34:34.394Z,-49
2016-09-14T04:35:34.371Z,-49
2016-09-14T04:36:34.340Z,-49
2016-09-14T04:37:34.361Z,-49
2016-09-14T04:38:34.414Z,-49
2016-09-14T04:39:34.357Z,-49
2016-09-14T04:40:34.396Z,-48
2016-09-14T04:41:34.400Z,-49
2016-09-14T04:42:34.340Z,-49
2016-09-14T04:43:34.366Z,-49
2016-09-14T04:44:34.396Z,-49
2016-09-14T04:45:34.398Z,-48
2016-09-14T04:46:34.384Z,-46
2016-09-14T04:47:34.383Z,-49
2016-09-14T04:48:34.384Z,-49
2016-09-14T04:49:34.367Z,-47
2016-09-14T04:50:34.371Z,-49
2016-09-14T04:51:34.367Z,-49
2016-09-14T04:52:34.368Z,-49
2016-09-14T04:53:34.382Z,-49
2016-09-14T04:54:34.412Z,-48
2016-09-14T04:55:34.390Z,-48
2016-09-14T04:56:34.724Z,-50
2016-09-14T04:57:34.430Z,-49
2016-09-14T04:58:34.377Z,-50
2016-09-14T04:59:34.403Z,-50
2016-09-14T05:00:34.442Z,-50
2016-09-14T05:01:34.409Z,-50
2016-09-14T05:02:34.386Z,-50
2016-09-14T05:03:34.482Z,-48
2016-09-14T05:04:34.461Z,-49
2016-09-14T05:05:34.440Z,-48
2016-09-14T05:06:34.385Z,-48
2016-09-14T05:07:34.410Z,-48
2016-09-14T05:08:34.482Z,-48
2016-09-14T05:09:34.421Z,-48
2016-09-14T05:10:34.459Z,-48
2016-09-14T05:11:34.509Z,-48
2016-09-14T05:12:34.509Z,-48
2016-09-14T05:13:34.481Z,-48
2016-09-14T05:14:34.461Z,-48
2016-09-14T05:15:34.471Z,-49
2016-09-14T05:16:34.458Z,-50
2016-09-14T05:17:34.433Z,-50
2016-09-14T05:18:34.421Z,-50
2016-09-14T05:19:34.462Z,-50
2016-09-14T05:20:34.455Z,-50
2016-09-14T05:21:34.442Z,-50
2016-09-14T05:22:34.429Z,-51
2016-09-14T05:23:34.412Z,-50
2016-09-14T05:24:34.453Z,-49
2016-09-14T05:25:34.383Z,-48
2016-09-14T05:26:34.479Z,-49
2016-09-14T05:27:34.393Z,-48
2016-09-14T05:28:34.480Z,-49
2016-09-14T05:29:34.448Z,-50
2016-09-14T05:30:34.480Z,-50
2016-09-14T05:31:34.483Z,-49
2016-09-14T05:32:35.124Z,-50
2016-09-14T05:33:34.425Z,-49
2016-09-14T05:34:35.309Z,-49
2016-09-14T05:35:38.839Z,-51
2016-09-14T05:36:35.448Z,-49
2016-09-14T05:37:35.857Z,-46
2016-09-14T05:38:35.088Z,-49
2016-09-14T05:39:36.825Z,-50
2016-09-14T05:40:34.423Z,-47
2016-09-14T05:41:35.285Z,-49
2016-09-14T05:42:34.791Z,-49
2016-09-14T05:43:35.808Z,-50
2016-09-14T05:44:35.889Z,-48
2016-09-14T05:45:34.437Z,-49
2016-09-14T05:46:34.450Z,-51
2016-09-14T05:47:35.309Z,-47
2016-09-14T05:48:34.442Z,-47
2016-09-14T05:49:34.470Z,-47
2016-09-14T05:50:34.472Z,-47
2016-09-14T05:51:34.468Z,-47
2016-09-14T05:52:34.444Z,-47
2016-09-14T05:53:34.425Z,-47
2016-09-14T05:54:34.481Z,-47
2016-09-14T05:55:34.461Z,-47
2016-09-14T05:56:34.451Z,-47
2016-09-14T05:57:34.430Z,-47
2016-09-14T05:58:34.425Z,-46
2016-09-14T05:59:34.429Z,-48
2016-09-14T06:00:34.448Z,-49
2016-09-14T06:01:34.427Z,-49
2016-09-14T06:02:34.471Z,-48
2016-09-14T06:03:34.410Z,-48
2016-09-14T06:04:34.461Z,-48
2016-09-14T06:05:34.440Z,-48
2016-09-14T06:06:34.464Z,-48
2016-09-14T06:07:34.471Z,-48
2016-09-14T06:08:34.462Z,-47
2016-09-14T06:09:34.466Z,-46
2016-09-14T06:10:34.447Z,-47
2016-09-14T06:11:34.492Z,-47
2016-09-14T06:12:34.455Z,-49
2016-09-14T06:13:34.597Z,-45
2016-09-14T06:14:34.488Z,-47
2016-09-14T06:15:34.516Z,-48
2016-09-14T06:16:34.469Z,-48
2016-09-14T06:17:34.439Z,-47
2016-09-14T06:18:34.467Z,-48
2016-09-14T06:19:34.449Z,-48
2016-09-14T06:20:34.445Z,-48
2016-09-14T06:21:34.458Z,-48
2016-09-14T06:22:34.458Z,-48
2016-09-14T06:23:34.431Z,-48
2016-09-14T06:24:34.472Z,-49
2016-09-14T06:25:34.449Z,-48
2016-09-14T06:26:34.457Z,-48
2016-09-14T06:27:34.543Z,-48
2016-09-14T06:28:34.455Z,-48
2016-09-14T06:29:34.446Z,-48
2016-09-14T06:30:34.461Z,-48
2016-09-14T06:31:34.439Z,-49
2016-09-14T06:32:34.454Z,-46
2016-09-14T06:33:34.449Z,-46
2016-09-14T06:34:34.481Z,-46
2016-09-14T06:35:34.446Z,-47
2016-09-14T06:36:34.469Z,-48
2016-09-14T06:37:34.469Z,-47
2016-09-14T06:38:34.499Z,-47
2016-09-14T06:39:34.487Z,-47
2016-09-14T06:40:34.490Z,-47
2016-09-14T06:41:34.481Z,-47
2016-09-14T06:42:34.508Z,-49
2016-09-14T06:43:34.484Z,-48
2016-09-14T06:44:34.505Z,-49
2016-09-14T06:45:34.511Z,-49
2016-09-14T06:46:34.459Z,-49
2016-09-14T06:47:34.483Z,-50
2016-09-14T06:48:34.486Z,-50
2016-09-14T06:49:34.511Z,-50
2016-09-14T06:50:34.530Z,-49
2016-09-14T06:51:34.506Z,-50
2016-09-14T06:52:34.502Z,-49
2016-09-14T06:53:34.520Z,-48
2016-09-14T06:54:34.602Z,-48
2016-09-14T06:55:34.479Z,-49
2016-09-14T06:56:34.523Z,-49
2016-09-14T06:57:34.476Z,-49
2016-09-14T06:58:34.553Z,-49
2016-09-14T06:59:34.488Z,-50
2016-09-14T07:00:34.465Z,-49
2016-09-14T07:01:34.520Z,-49
2016-09-14T07:02:34.532Z,-49
2016-09-14T07:03:34.531Z,-49
2016-09-14T07:04:34.538Z,-49
2016-09-14T07:05:34.552Z,-51
2016-09-14T07:06:34.499Z,-49
2016-09-14T07:07:34.489Z,-47
2016-09-14T07:08:34.495Z,-47
2016-09-14T07:09:34.593Z,-47
2016-09-14T07:10:34.540Z,-47
2016-09-14T07:11:34.613Z,-47
2016-09-14T07:12:34.622Z,-47
2016-09-14T07:13:34.523Z,-51
2016-09-14T07:14:34.505Z,-51
2016-09-14T07:15:34.494Z,-51
2016-09-14T07:16:34.499Z,-50
2016-09-14T07:17:34.513Z,-50
2016-09-14T07:18:34.490Z,-51
2016-09-14T07:19:34.497Z,-51
2016-09-14T07:20:34.513Z,-51
2016-09-14T07:21:34.565Z,-49
2016-09-14T07:22:34.600Z,-49
2016-09-14T07:23:34.541Z,-48
2016-09-14T07:24:34.616Z,-49
2016-09-14T07:25:34.504Z,-49
2016-09-14T07:26:34.511Z,-51
2016-09-14T07:27:35.260Z,-50
2016-09-14T07:28:34.510Z,-51
2016-09-14T07:29:34.548Z,-51
2016-09-14T07:30:34.540Z,-51
2016-09-14T07:31:34.556Z,-51
2016-09-14T07:32:34.537Z,-50
2016-09-14T07:33:34.556Z,-50
2016-09-14T07:34:34.578Z,-49
2016-09-14T07:35:34.616Z,-50
2016-09-14T07:36:34.571Z,-49
2016-09-14T07:37:34.562Z,-51
2016-09-14T07:38:34.520Z,-51
2016-09-14T07:39:34.557Z,-51
2016-09-14T07:40:34.568Z,-50
2016-09-14T07:41:34.569Z,-49
2016-09-14T07:42:34.588Z,-49
2016-09-14T07:43:34.543Z,-49
2016-09-14T07:44:34.557Z,-50
2016-09-14T07:45:34.543Z,-49
2016-09-14T07:46:34.642Z,-49
2016-09-14T07:47:34.552Z,-49
2016-09-14T07:48:34.546Z,-50
2016-09-14T07:49:34.598Z,-49
2016-09-14T07:50:34.556Z,-49
2016-09-14T07:51:34.532Z,-49
2016-09-14T07:52:34.557Z,-49
2016-09-14T07:53:34.538Z,-49
2016-09-14T07:54:34.609Z,-49
2016-09-14T07:55:34.631Z,-49
2016-09-14T07:56:34.549Z,-49
2016-09-14T07:57:34.562Z,-49
2016-09-14T07:58:34.545Z,-49
2016-09-14T07:59:34.582Z,-49
2016-09-14T08:00:34.520Z,-49
2016-09-14T08:01:34.524Z,-49
2016-09-14T08:02:34.548Z,-49
2016-09-14T08:03:34.612Z,-49
2016-09-14T08:04:34.546Z,-49
2016-09-14T08:05:34.551Z,-50
2016-09-14T08:06:34.562Z,-49
2016-09-14T08:07:34.537Z,-49
2016-09-14T08:08:34.581Z,-49
2016-09-14T08:09:34.553Z,-51
2016-09-14T08:10:34.569Z,-51
2016-09-14T08:11:34.580Z,-51
2016-09-14T08:12:34.591Z,-51
2016-09-14T08:13:34.585Z,-49
2016-09-14T08:14:34.584Z,-49
2016-09-14T08:15:34.603Z,-50
2016-09-14T08:16:34.584Z,-47
2016-09-14T08:17:34.643Z,-48
2016-09-14T08:18:34.628Z,-50
2016-09-14T08:19:34.606Z,-49
2016-09-14T08:20:34.623Z,-49
2016-09-14T08:21:34.606Z,-48
2016-09-14T08:22:34.572Z,-49
2016-09-14T08:23:34.611Z,-49
2016-09-14T08:24:34.623Z,-50
2016-09-14T08:25:34.762Z,-51
2016-09-14T08:26:34.666Z,-51
2016-09-14T08:27:34.622Z,-51
2016-09-14T08:28:34.662Z,-49
2016-09-14T08:29:34.568Z,-50
2016-09-14T08:30:34.641Z,-50
2016-09-14T08:31:34.600Z,-49
2016-09-14T08:32:34.638Z,-50
2016-09-14T08:33:34.828Z,-50
2016-09-14T08:34:34.606Z,-50
2016-09-14T08:35:34.609Z,-49
2016-09-14T08:36:34.634Z,-49
2016-09-14T08:37:34.622Z,-49
2016-09-14T08:38:34.620Z,-48
2016-09-14T08:39:34.638Z,-49
2016-09-14T08:40:34.653Z,-48
2016-09-14T08:41:34.613Z,-49
2016-09-14T08:42:34.620Z,-49
2016-09-14T08:43:34.656Z,-47
2016-09-14T08:44:34.641Z,-47
2016-09-14T08:45:34.699Z,-47
2016-09-14T08:46:34.610Z,-47
2016-09-14T08:47:34.629Z,-47
2016-09-14T08:48:34.654Z,-47
2016-09-14T08:49:34.623Z,-49
2016-09-14T08:50:34.647Z,-48
2016-09-14T08:51:34.663Z,-49
2016-09-14T08:52:34.693Z,-48
2016-09-14T08:53:34.629Z,-48
2016-09-14T08:54:34.684Z,-47
2016-09-14T08:55:34.644Z,-48
2016-09-14T08:56:34.661Z,-48
2016-09-14T08:57:34.644Z,-48
2016-09-14T08:58:34.632Z,-47
2016-09-14T08:59:34.699Z,-49
2016-09-14T09:00:34.661Z,-47
2016-09-14T09:01:34.674Z,-48
2016-09-14T09:02:34.670Z,-47
2016-09-14T09:03:34.736Z,-47
2016-09-14T09:04:34.643Z,-47
2016-09-14T09:05:34.698Z,-47
2016-09-14T09:06:34.640Z,-47
2016-09-14T09:07:34.665Z,-48
2016-09-14T09:08:34.665Z,-47
2016-09-14T09:09:34.650Z,-47
2016-09-14T09:10:34.705Z,-47
2016-09-14T09:11:34.689Z,-47
2016-09-14T09:12:34.632Z,-49
2016-09-14T09:13:34.672Z,-49
2016-09-14T09:14:34.689Z,-50
2016-09-14T09:15:34.687Z,-49
2016-09-14T09:16:34.737Z,-50
2016-09-14T09:17:34.716Z,-51
2016-09-14T09:18:34.685Z,-49
2016-09-14T09:19:34.630Z,-49
2016-09-14T09:20:34.658Z,-49
2016-09-14T09:21:34.651Z,-49
2016-09-14T09:22:34.637Z,-49
2016-09-14T09:23:34.735Z,-48
2016-09-14T09:24:34.663Z,-49
2016-09-14T09:25:34.666Z,-49
2016-09-14T09:26:34.637Z,-48
2016-09-14T09:27:34.679Z,-49
2016-09-14T09:28:34.702Z,-49
2016-09-14T09:29:34.676Z,-49
2016-09-14T09:30:34.676Z,-49
2016-09-14T09:31:34.655Z,-47
2016-09-14T09:32:34.684Z,-48
2016-09-14T09:33:34.712Z,-48
2016-09-14T09:34:34.694Z,-48
2016-09-14T09:35:34.689Z,-48
2016-09-14T09:36:34.681Z,-47
2016-09-14T09:37:34.655Z,-48
2016-09-14T09:38:34.693Z,-48
2016-09-14T09:39:35.005Z,-48
2016-09-14T09:40:35.468Z,-48
2016-09-14T09:41:34.672Z,-48
2016-09-14T09:42:34.674Z,-48
2016-09-14T09:43:34.781Z,-49
2016-09-14T09:44:34.684Z,-48
2016-09-14T09:45:34.716Z,-47
2016-09-14T09:46:34.698Z,-47
2016-09-14T09:47:34.662Z,-47
2016-09-14T09:48:34.717Z,-49
2016-09-14T09:49:34.664Z,-48
2016-09-14T09:50:34.724Z,-47
2016-09-14T09:51:34.646Z,-47
2016-09-14T09:52:34.676Z,-47
2016-09-14T09:53:34.677Z,-47
2016-09-14T09:54:34.740Z,-49
2016-09-14T09:55:34.695Z,-49
2016-09-14T09:56:34.690Z,-49
2016-09-14T09:57:34.692Z,-49
2016-09-14T09:58:34.717Z,-49
2016-09-14T09:59:34.751Z,-50
2016-09-14T10:00:34.685Z,-49
2016-09-14T10:01:34.756Z,-50
2016-09-14T10:02:34.710Z,-51
2016-09-14T10:03:34.686Z,-50
2016-09-14T10:04:34.755Z,-50
2016-09-14T10:05:34.690Z,-49
2016-09-14T10:06:34.724Z,-49
2016-09-14T10:07:34.741Z,-49
2016-09-14T10:08:34.671Z,-50
2016-09-14T10:09:34.728Z,-49
2016-09-14T10:10:34.701Z,-50
2016-09-14T10:11:34.786Z,-50
2016-09-14T10:12:35.097Z,-51
2016-09-14T10:13:34.702Z,-50
2016-09-14T10:14:34.720Z,-49
2016-09-14T10:15:34.724Z,-47
2016-09-14T10:16:34.956Z,-49
2016-09-14T10:17:34.764Z,-50
2016-09-14T10:18:34.734Z,-47
2016-09-14T10:19:34.731Z,-48
2016-09-14T10:20:34.737Z,-48
2016-09-14T10:21:34.750Z,-48
2016-09-14T10:22:34.763Z,-48
2016-09-14T10:23:34.759Z,-47
2016-09-14T10:24:34.745Z,-48
2016-09-14T10:25:34.754Z,-45
2016-09-14T10:26:34.728Z,-47
2016-09-14T10:27:34.702Z,-47
2016-09-14T10:28:34.750Z,-47
2016-09-14T10:29:34.724Z,-48
2016-09-14T10:30:34.721Z,-47
2016-09-14T10:31:34.748Z,-48
2016-09-14T10:32:34.752Z,-50
2016-09-14T10:33:34.699Z,-48
2016-09-14T10:34:34.728Z,-50
2016-09-14T10:35:34.756Z,-50
2016-09-14T10:36:34.730Z,-48
2016-09-14T10:37:35.290Z,-52
2016-09-14T10:38:34.989Z,-52
2016-09-14T10:39:34.747Z,-52
2016-09-14T10:40:34.754Z,-50
2016-09-14T10:41:35.064Z,-50
2016-09-14T10:42:34.825Z,-51
2016-09-14T10:43:35.934Z,-51
2016-09-14T10:44:35.483Z,-49
2016-09-14T10:45:35.984Z,-48
2016-09-14T10:46:36.266Z,-50
2016-09-14T10:47:35.310Z,-50
2016-09-14T10:48:34.755Z,-51
2016-09-14T10:49:35.188Z,-47
2016-09-14T10:50:35.314Z,-50
2016-09-14T10:51:34.711Z,-45
2016-09-14T10:52:34.736Z,-47
2016-09-14T10:53:34.769Z,-47
2016-09-14T10:54:34.803Z,-48
2016-09-14T10:55:34.763Z,-47
2016-09-14T10:56:35.017Z,-47
2016-09-14T10:57:35.687Z,-48
2016-09-14T10:58:35.102Z,-50
2016-09-14T10:59:34.735Z,-50
2016-09-14T11:00:35.511Z,-50
2016-09-14T11:01:36.047Z,-48
2016-09-14T11:02:34.883Z,-49
2016-09-14T11:03:34.746Z,-49
2016-09-14T11:04:34.987Z,-48
2016-09-14T11:05:34.750Z,-49
2016-09-14T11:06:34.759Z,-50
2016-09-14T11:07:34.782Z,-50
2016-09-14T11:08:34.791Z,-49
2016-09-14T11:09:34.746Z,-50
2016-09-14T11:10:34.779Z,-50
2016-09-14T11:11:34.789Z,-47
2016-09-14T11:12:34.857Z,-49
2016-09-14T11:13:35.909Z,-50
2016-09-14T11:14:34.772Z,-48
2016-09-14T11:15:34.781Z,-48
2016-09-14T11:16:34.761Z,-50
2016-09-14T11:17:34.810Z,-50
2016-09-14T11:18:34.784Z,-49
2016-09-14T11:19:34.823Z,-48
2016-09-14T11:20:34.813Z,-48
2016-09-14T11:21:34.773Z,-49
2016-09-14T11:22:35.471Z,-49
2016-09-14T11:23:34.764Z,-48
2016-09-14T11:24:35.454Z,-47
2016-09-14T11:25:34.784Z,-46
2016-09-14T11:26:34.944Z,-45
2016-09-14T11:27:34.773Z,-48
2016-09-14T11:28:34.780Z,-48
2016-09-14T11:29:34.798Z,-50
2016-09-14T11:30:34.881Z,-50
2016-09-14T11:31:34.796Z,-50
2016-09-14T11:32:34.996Z,-49
2016-09-14T11:33:34.793Z,-47
2016-09-14T11:34:35.112Z,-49
2016-09-14T11:35:34.821Z,-51
2016-09-14T11:36:35.414Z,-49
2016-09-14T11:37:34.863Z,-49
2016-09-14T11:38:34.848Z,-50
2016-09-14T11:39:34.813Z,-51
2016-09-14T11:40:34.843Z,-50
2016-09-14T11:41:34.849Z,-51
2016-09-14T11:42:34.944Z,-52
2016-09-14T11:43:34.822Z,-50
2016-09-14T11:44:34.809Z,-52
2016-09-14T11:45:34.830Z,-51
2016-09-14T11:46:35.546Z,-51
2016-09-14T11:47:34.812Z,-52
2016-09-14T11:48:34.855Z,-51
2016-09-14T11:49:34.875Z,-50
2016-09-14T11:50:34.809Z,-46
2016-09-14T11:51:35.101Z,-49
2016-09-14T11:52:34.837Z,-49
2016-09-14T11:53:34.818Z,-49
2016-09-14T11:54:34.876Z,-49
2016-09-14T11:55:34.886Z,-48
2016-09-14T11:56:34.867Z,-47
2016-09-14T11:57:34.851Z,-48
2016-09-14T11:58:34.785Z,-47
2016-09-14T11:59:34.819Z,-48
2016-09-14T12:00:34.830Z,-45
2016-09-14T12:01:34.819Z,-48
2016-09-14T12:02:34.814Z,-47
2016-09-14T12:03:34.852Z,-49
2016-09-14T12:04:34.804Z,-48
2016-09-14T12:05:35.337Z,-49
2016-09-14T12:06:34.804Z,-48
2016-09-14T12:07:34.824Z,-48
2016-09-14T12:08:34.893Z,-48
2016-09-14T12:09:34.855Z,-47
2016-09-14T12:10:35.509Z,-48
2016-09-14T12:11:34.848Z,-51
2016-09-14T12:12:35.422Z,-50
2016-09-14T12:13:34.951Z,-51
2016-09-14T12:14:34.874Z,-51
2016-09-14T12:15:34.880Z,-50
2016-09-14T12:16:34.847Z,-50
2016-09-14T12:17:34.887Z,-48
2016-09-14T12:18:34.896Z,-49
2016-09-14T12:19:34.863Z,-52
2016-09-14T12:20:35.025Z,-47
2016-09-14T12:21:34.923Z,-51
2016-09-14T12:22:35.490Z,-50
2016-09-14T12:23:34.857Z,-50
2016-09-14T12:24:35.194Z,-50
2016-09-14T12:25:34.850Z,-50
2016-09-14T12:26:34.954Z,-50
2016-09-14T12:27:35.002Z,-51
2016-09-14T12:28:34.982Z,-50
2016-09-14T12:29:34.868Z,-51
2016-09-14T12:30:35.469Z,-51
2016-09-14T12:31:35.607Z,-49
2016-09-14T12:32:34.906Z,-52
2016-09-14T12:33:34.862Z,-52
2016-09-14T12:34:34.856Z,-52
2016-09-14T12:35:34.832Z,-48
2016-09-14T12:36:35.447Z,-47
2016-09-14T12:37:35.218Z,-50
2016-09-14T12:38:34.867Z,-48
2016-09-14T12:39:34.943Z,-50
2016-09-14T12:40:34.848Z,-49
2016-09-14T12:41:34.860Z,-49
2016-09-14T12:42:34.859Z,-50
2016-09-14T12:43:35.033Z,-48
2016-09-14T12:44:34.898Z,-49
2016-09-14T12:45:34.879Z,-48
2016-09-14T12:46:34.872Z,-47
2016-09-14T12:47:34.866Z,-47
2016-09-14T12:48:34.854Z,-47
2016-09-14T12:49:34.890Z,-50
2016-09-14T12:50:34.920Z,-49
2016-09-14T12:51:34.891Z,-49
2016-09-14T12:52:34.891Z,-50
2016-09-14T12:53:34.897Z,-51
2016-09-14T12:54:35.016Z,-51
2016-09-14T12:55:34.890Z,-46
2016-09-14T12:56:34.897Z,-50
2016-09-14T12:57:36.056Z,-56
2016-09-14T12:58:35.808Z,-48
2016-09-14T12:59:35.373Z,-52
2016-09-14T13:00:37.641Z,-51
2016-09-14T13:01:35.445Z,-51
2016-09-14T13:02:34.998Z,-55
2016-09-14T13:03:35.118Z,-52
2016-09-14T13:04:34.898Z,-53
2016-09-14T13:05:37.006Z,-54
2016-09-14T13:06:34.904Z,-55
2016-09-14T13:07:35.893Z,-54
2016-09-14T13:08:37.935Z,-55
2016-09-14T13:09:36.181Z,-53
2016-09-14T13:10:35.486Z,-54
2016-09-14T13:11:35.944Z,-55
2016-09-14T13:12:35.180Z,-55
2016-09-14T13:13:37.179Z,-54
2016-09-14T13:14:36.434Z,-55
2016-09-14T13:15:36.232Z,-55
2016-09-14T13:16:34.934Z,-54
2016-09-14T13:17:35.562Z,-56
2016-09-14T13:18:35.071Z,-56
2016-09-14T13:19:34.973Z,-55
2016-09-14T13:20:36.678Z,-55
2016-09-14T13:22:16.451Z,-53
2016-09-14T13:23:10.254Z,-55
2016-09-14T13:24:37.886Z,-53
2016-09-14T13:26:08.090Z,-51
2016-09-14T13:27:18.729Z,-53
2016-09-14T13:27:28.674Z,-54
2016-09-14T13:28:28.654Z,-52
2016-09-14T13:29:29.797Z,-54
2016-09-14T13:30:28.787Z,-56
2016-09-14T13:31:28.764Z,-52
2016-09-14T13:32:28.645Z,-50
2016-09-14T13:33:28.619Z,-50
2016-09-14T13:34:29.811Z,-50
2016-09-14T13:35:29.870Z,-52
2016-09-14T13:36:28.630Z,-52
2016-09-14T13:37:29.506Z,-51
2016-09-14T13:38:29.454Z,-51
2016-09-14T13:39:28.645Z,-49
2016-09-14T13:40:29.422Z,-50
2016-09-14T13:41:28.654Z,-46
2016-09-14T13:42:29.875Z,-48
2016-09-14T13:43:28.907Z,-49
2016-09-14T13:44:28.904Z,-49
2016-09-14T13:45:29.081Z,-48
2016-09-14T13:46:31.406Z,-51
2016-09-14T13:47:29.468Z,-52
2016-09-14T13:48:29.319Z,-49